Time;durP1;ratioP1;P1;durP2;ratioP2;P2;SDS_P1;SDS_P2;PMS_P1;PMS_P2;Temp;Humidity;BMP_temperature;BMP_pressure;BME280_temperature;BME280_humidity;BME280_pressure;Samples;Min_cycle;Max_cycle;Signal;HPM_P1;HPM_P2
2023/07/16 00:00:18;;;;;;;3.00;1.52;;;18.80;99.90;;;;;;5014762;28;20205;-67
2023/07/16 00:02:46;;;;;;;2.92;1.60;;;18.80;99.90;;;;;;5028038;28;20745;-67
2023/07/16 00:05:13;;;;;;;2.17;1.58;;;17.70;99.90;;;;;;4993208;28;20610;-67
2023/07/16 00:07:40;;;;;;;1.90;1.35;;;18.70;99.90;;;;;;4999629;28;20209;-67
2023/07/16 00:10:07;;;;;;;3.40;1.60;;;18.80;99.90;;;;;;5011361;28;20209;-68
2023/07/16 00:12:34;;;;;;;2.50;1.70;;;18.70;99.90;;;;;;5025276;28;20205;-67
2023/07/16 00:15:01;;;;;;;3.08;1.73;;;18.60;99.90;;;;;;5018078;28;20582;-67
2023/07/16 00:17:27;;;;;;;7.68;1.88;;;18.60;99.90;;;;;;5013642;28;20209;-68
2023/07/16 00:19:55;;;;;;;4.30;1.90;;;18.50;99.90;;;;;;4996028;28;20197;-67
2023/07/16 00:22:22;;;;;;;4.55;1.55;;;;;;;;;;5011040;28;20206;-67
2023/07/16 00:24:49;;;;;;;1.80;1.45;;;18.50;99.90;;;;;;4997919;28;20236;-68
2023/07/16 00:27:16;;;;;;;3.95;1.80;;;18.50;99.90;;;;;;5019444;28;20202;-68
2023/07/16 00:29:43;;;;;;;7.07;1.80;;;18.50;99.90;;;;;;5011949;28;20204;-67
2023/07/16 00:32:10;;;;;;;6.22;1.73;;;18.60;99.90;;;;;;5014254;28;20679;-67
2023/07/16 00:34:37;;;;;;;3.33;1.40;;;18.70;99.90;;;;;;4995730;28;20197;-67
2023/07/16 00:37:05;;;;;;;2.50;1.63;;;18.60;99.90;;;;;;5013813;28;20209;-68
2023/07/16 00:39:32;;;;;;;4.50;1.58;;;18.70;99.90;;;;;;5000909;28;20216;-67
2023/07/16 00:41:58;;;;;;;2.85;1.48;;;18.60;99.90;;;;;;5010125;28;20206;-67
2023/07/16 00:44:25;;;;;;;2.58;1.83;;;18.50;99.90;;;;;;5015507;28;20221;-67
2023/07/16 00:46:52;;;;;;;3.20;1.60;;;18.50;99.90;;;;;;5023264;28;20204;-67
2023/07/16 00:49:19;;;;;;;6.57;1.75;;;18.50;99.90;;;;;;5017175;28;20197;-67
2023/07/16 00:51:47;;;;;;;4.30;1.70;;;18.50;99.90;;;;;;4992143;28;20246;-67
2023/07/16 00:54:15;;;;;;;3.83;1.77;;;18.50;99.90;;;;;;5013590;28;20875;-67
2023/07/16 00:56:42;;;;;;;2.38;1.60;;;18.50;99.90;;;;;;5006436;28;20663;-68
2023/07/16 00:59:09;;;;;;;4.95;1.85;;;18.40;99.90;;;;;;5026958;28;20221;-67
2023/07/16 01:01:36;;;;;;;3.83;1.88;;;18.40;99.90;;;;;;5011272;28;21086;-67
2023/07/16 01:04:03;;;;;;;4.03;2.15;;;18.40;99.90;;;;;;5014646;28;20225;-68
2023/07/16 01:06:36;;;;;;;4.85;2.22;;;18.50;99.90;;;;;;4998421;28;20232;-68
2023/07/16 01:09:07;;;;;;;8.35;2.05;;;18.50;99.90;;;;;;5009895;28;20227;-67
2023/07/16 01:11:36;;;;;;;4.80;2.00;;;18.50;99.90;;;;;;5004956;28;20705;-68
2023/07/16 01:14:04;;;;;;;2.78;1.70;;;18.50;99.90;;;;;;5015893;28;20320;-67
2023/07/16 01:16:30;;;;;;;5.00;2.03;;;18.20;99.90;;;;;;5024794;28;20209;-67
2023/07/16 01:18:58;;;;;;;7.75;1.70;;;18.40;99.90;;;;;;5015696;28;20205;-67
2023/07/16 01:21:30;;;;;;;2.17;1.40;;;18.40;99.90;;;;;;4986792;28;20217;-68
2023/07/16 01:24:41;;;;;;;4.18;2.00;;;18.30;99.90;;;;;;5009227;28;20225;-67
2023/07/16 01:27:28;;;;;;;5.32;1.90;;;18.30;99.90;;;;;;5013118;28;20578;-67
2023/07/16 01:30:01;;;;;;;4.03;1.88;;;18.40;99.90;;;;;;5019595;28;20204;-67
2023/07/16 01:32:31;;;;;;;4.10;1.80;;;18.30;99.90;;;;;;5023469;28;20248;-67
2023/07/16 01:34:58;;;;;;;4.45;1.70;;;18.40;99.90;;;;;;4999572;28;20781;-69
2023/07/16 01:37:25;;;;;;;3.08;1.88;;;18.40;99.90;;;;;;4993785;28;20210;-68
2023/07/16 01:39:52;;;;;;;4.70;1.75;;;18.20;99.90;;;;;;5010788;28;23674;-68
2023/07/16 01:42:19;;;;;;;3.05;1.73;;;18.40;99.90;;;;;;5010662;28;20206;-67
2023/07/16 01:44:46;;;;;;;4.30;1.70;;;18.40;99.90;;;;;;5014366;28;20229;-68
2023/07/16 01:47:22;;;;;;;2.78;1.73;;;18.30;99.90;;;;;;5022082;28;20198;-67
2023/07/16 01:49:49;;;;;;;3.35;1.83;;;18.40;99.90;;;;;;5023981;28;20203;-68
2023/07/16 01:52:16;;;;;;;8.80;1.85;;;18.30;99.90;;;;;;4987703;28;20320;-67
2023/07/16 01:54:43;;;;;;;2.90;1.75;;;18.30;99.90;;;;;;5016767;28;20579;-68
2023/07/16 01:57:10;;;;;;;5.70;1.98;;;18.30;99.90;;;;;;5006007;28;20607;-67
2023/07/16 01:59:36;;;;;;;6.10;1.70;;;18.30;99.90;;;;;;5005786;28;20210;-68
2023/07/16 02:02:04;;;;;;;6.13;2.00;;;18.30;99.90;;;;;;5014714;28;20685;-67
2023/07/16 02:04:32;;;;;;;4.00;1.80;;;18.30;99.90;;;;;;5017405;28;20226;-67
2023/07/16 02:06:59;;;;;;;2.45;1.70;;;19.20;99.90;;;;;;4981584;28;20225;-68
2023/07/16 02:09:26;;;;;;;4.78;1.83;;;18.20;99.90;;;;;;5017436;28;20201;-67
2023/07/16 02:11:52;;;;;;;4.40;1.90;;;18.20;99.90;;;;;;5003716;28;20233;-68
2023/07/16 02:14:19;;;;;;;7.25;2.05;;;18.10;99.90;;;;;;5011870;28;20313;-67
2023/07/16 02:16:46;;;;;;;6.88;1.90;;;18.20;99.90;;;;;;5016306;28;20213;-68
2023/07/16 02:19:13;;;;;;;4.38;1.92;;;18.20;99.90;;;;;;5019705;28;20208;-68
2023/07/16 02:21:41;;;;;;;4.50;1.80;;;18.20;99.90;;;;;;5014359;28;20209;-67
2023/07/16 02:24:08;;;;;;;5.07;1.80;;;18.30;99.90;;;;;;4990765;28;20690;-67
2023/07/16 02:26:35;;;;;;;5.05;2.05;;;18.20;99.90;;;;;;5012914;28;20205;-67
2023/07/16 02:29:01;;;;;;;4.10;1.50;;;18.20;99.90;;;;;;5011017;28;20687;-68
2023/07/16 02:31:28;;;;;;;4.93;1.58;;;18.20;99.90;;;;;;5022554;28;20202;-67
2023/07/16 02:33:55;;;;;;;3.25;1.80;;;18.10;99.90;;;;;;5020749;28;20193;-67
2023/07/16 02:36:22;;;;;;;6.57;2.00;;;18.00;99.90;;;;;;5015508;28;20205;-67
2023/07/16 02:38:50;;;;;;;3.15;1.73;;;18.10;99.90;;;;;;4996134;28;20213;-67
2023/07/16 02:41:16;;;;;;;7.68;2.00;;;18.10;99.90;;;;;;5008073;28;20209;-68
2023/07/16 02:43:43;;;;;;;4.65;2.00;;;18.10;99.90;;;;;;5026009;28;20207;-67
2023/07/16 02:46:10;;;;;;;3.85;1.88;;;18.10;99.90;;;;;;5010836;28;20249;-67
2023/07/16 02:48:37;;;;;;;4.13;1.70;;;18.20;99.90;;;;;;5021512;28;20194;-67
2023/07/16 02:51:04;;;;;;;4.15;2.00;;;18.30;99.90;;;;;;5020301;28;20222;-67
2023/07/16 02:53:31;;;;;;;2.55;1.42;;;18.20;99.90;;;;;;4984595;28;20229;-68
2023/07/16 02:55:59;;;;;;;2.67;1.90;;;18.10;99.90;;;;;;5021037;28;20208;-68
2023/07/16 02:58:26;;;;;;;4.10;1.55;;;18.20;99.90;;;;;;5005766;28;20229;-67
2023/07/16 03:00:52;;;;;;;2.97;2.13;;;18.20;99.90;;;;;;5013366;28;20194;-67
2023/07/16 03:03:19;;;;;;;3.55;2.10;;;18.10;99.90;;;;;;5013301;28;20205;-67
2023/07/16 03:05:46;;;;;;;6.40;1.90;;;18.20;99.90;;;;;;5023882;28;20220;-68
2023/07/16 03:08:13;;;;;;;3.78;1.90;;;19.40;99.90;;;;;;4998900;28;20210;-67
2023/07/16 03:10:40;;;;;;;4.85;2.17;;;18.10;99.90;;;;;;5007143;28;20620;-67
2023/07/16 03:13:08;;;;;;;6.68;2.08;;;18.20;99.90;;;;;;5004544;28;20202;-67
2023/07/16 03:15:35;;;;;;;8.38;1.65;;;18.00;99.90;;;;;;5023115;28;20212;-67
2023/07/16 03:18:02;;;;;;;5.32;2.22;;;18.10;99.90;;;;;;5014316;28;20206;-68
2023/07/16 03:20:29;;;;;;;5.97;1.90;;;18.10;99.90;;;;;;5017906;28;20302;-67
2023/07/16 03:22:55;;;;;;;6.35;2.17;;;18.10;99.90;;;;;;5012006;28;20210;-67
2023/07/16 03:25:22;;;;;;;10.55;2.28;;;18.10;99.90;;;;;;4995113;28;20221;-68
2023/07/16 03:27:49;;;;;;;7.30;2.40;;;18.10;99.90;;;;;;5007562;28;20201;-68
2023/07/16 03:30:17;;;;;;;3.03;1.73;;;18.10;99.90;;;;;;5020457;28;20667;-68
2023/07/16 03:32:44;;;;;;;3.63;1.80;;;18.10;99.90;;;;;;5009583;28;20205;-67
2023/07/16 03:35:11;;;;;;;5.85;2.30;;;18.10;99.90;;;;;;5024481;28;20218;-67
2023/07/16 03:37:37;;;;;;;7.53;2.13;;;18.10;99.90;;;;;;5020199;28;20211;-67
2023/07/16 03:40:14;;;;;;;3.50;2.00;;;18.10;99.90;;;;;;4987295;28;20217;-67
2023/07/16 03:42:41;;;;;;;5.47;2.13;;;18.10;99.90;;;;;;5005287;28;20209;-68
2023/07/16 03:45:09;;;;;;;6.18;2.25;;;18.10;99.90;;;;;;5021915;28;20235;-67
2023/07/16 03:47:37;;;;;;;4.75;2.30;;;18.10;99.90;;;;;;5004842;28;20201;-67
2023/07/16 03:50:04;;;;;;;3.20;2.13;;;18.20;99.90;;;;;;5016084;28;20229;-68
2023/07/16 03:52:31;;;;;;;4.07;2.33;;;18.20;99.90;;;;;;5018104;28;20234;-67
2023/07/16 03:54:58;;;;;;;7.35;2.20;;;18.30;99.90;;;;;;4986755;28;20216;-68
2023/07/16 03:57:25;;;;;;;3.60;2.10;;;18.30;99.90;;;;;;5010924;28;20200;-67
2023/07/16 03:59:52;;;;;;;8.18;2.20;;;18.30;99.90;;;;;;5003026;28;20205;-67
2023/07/16 04:02:18;;;;;;;14.20;2.45;;;18.40;99.90;;;;;;5012306;28;20210;-67
2023/07/16 04:04:46;;;;;;;2.72;1.90;;;18.30;99.90;;;;;;5020642;28;20224;-67
2023/07/16 04:07:13;;;;;;;4.38;2.08;;;18.30;99.90;;;;;;5018159;28;20194;-67
2023/07/16 04:09:41;;;;;;;5.90;2.65;;;18.00;99.90;;;;;;5008316;28;21070;-67
2023/07/16 04:12:08;;;;;;;5.32;2.35;;;18.20;99.90;;;;;;4987002;28;20268;-67
2023/07/16 04:14:35;;;;;;;3.95;1.98;;;18.20;99.90;;;;;;5008368;28;20202;-68
2023/07/16 04:17:02;;;;;;;3.95;2.22;;;18.20;99.90;;;;;;5020693;28;20199;-68
2023/07/16 04:19:29;;;;;;;5.63;2.35;;;18.20;99.90;;;;;;5002809;28;20247;-68
2023/07/16 04:21:57;;;;;;;7.65;2.65;;;18.20;99.90;;;;;;5020927;28;20293;-68
2023/07/16 04:24:26;;;;;;;5.15;2.92;;;18.20;99.90;;;;;;5016827;28;20216;-67
2023/07/16 04:26:53;;;;;;;5.72;2.30;;;18.20;99.90;;;;;;4991202;28;20810;-67
2023/07/16 04:29:20;;;;;;;6.03;2.00;;;18.20;99.90;;;;;;5011203;28;20198;-67
2023/07/16 04:31:47;;;;;;;5.45;2.60;;;18.20;99.90;;;;;;5011694;28;20211;-68
2023/07/16 04:34:14;;;;;;;6.43;2.47;;;18.20;99.90;;;;;;5006776;28;20201;-67
2023/07/16 04:36:40;;;;;;;4.90;2.60;;;18.20;99.90;;;;;;5017138;28;20205;-67
2023/07/16 04:39:08;;;;;;;5.88;2.50;;;18.30;99.90;;;;;;5018329;28;20205;-68
2023/07/16 04:41:35;;;;;;;10.40;2.72;;;18.30;99.90;;;;;;4987458;28;20208;-67
2023/07/16 04:44:02;;;;;;;5.60;3.10;;;18.30;99.90;;;;;;5020231;28;20208;-68
2023/07/16 04:46:30;;;;;;;4.80;2.42;;;18.30;99.90;;;;;;5010941;28;20920;-68
2023/07/16 04:48:56;;;;;;;4.20;2.17;;;18.20;99.90;;;;;;4998780;28;20292;-67
2023/07/16 04:51:23;;;;;;;9.68;2.65;;;18.30;99.90;;;;;;5022592;28;20226;-67
2023/07/16 04:53:50;;;;;;;5.97;2.58;;;18.20;99.90;;;;;;5007966;28;20241;-67
2023/07/16 04:56:18;;;;;;;4.53;2.72;;;18.40;99.90;;;;;;4986542;28;20220;-67
2023/07/16 04:58:45;;;;;;;5.90;2.50;;;18.30;99.90;;;;;;5012639;28;20218;-67
2023/07/16 05:01:12;;;;;;;6.13;2.25;;;18.40;99.90;;;;;;4999095;28;20268;-67
2023/07/16 05:03:39;;;;;;;5.65;2.58;;;18.40;99.90;;;;;;5012434;28;20214;-67
2023/07/16 05:06:06;;;;;;;2.95;2.25;;;18.40;99.90;;;;;;5014950;28;20332;-67
2023/07/16 05:08:33;;;;;;;4.82;2.00;;;18.90;99.90;;;;;;5013755;28;20225;-67
2023/07/16 05:11:00;;;;;;;6.63;2.60;;;18.50;99.90;;;;;;5001873;28;22858;-67
2023/07/16 05:13:28;;;;;;;4.45;2.08;;;18.50;99.90;;;;;;4984292;28;20391;-67
2023/07/16 05:15:55;;;;;;;11.13;2.35;;;18.50;99.90;;;;;;5006278;28;20221;-67
2023/07/16 05:18:22;;;;;;;9.93;2.35;;;18.60;99.90;;;;;;5015469;28;20228;-67
2023/07/16 05:20:49;;;;;;;3.63;2.03;;;18.60;99.90;;;;;;4998012;28;20732;-67
2023/07/16 05:23:16;;;;;;;4.18;2.28;;;18.60;99.90;;;;;;5016982;28;20387;-67
2023/07/16 05:25:47;;;;;;;5.47;2.60;;;18.70;99.90;;;;;;5007709;28;20233;-67
2023/07/16 05:28:14;;;;;;;7.18;2.95;;;18.60;99.90;;;;;;4984863;28;20268;-67
2023/07/16 05:30:42;;;;;;;5.45;2.80;;;;;;;;;;5007192;28;20225;-67
2023/07/16 05:33:10;;;;;;;5.93;2.90;;;18.60;99.90;;;;;;5018326;28;20968;-67
2023/07/16 05:35:37;;;;;;;3.25;1.92;;;18.70;99.90;;;;;;5010189;28;20229;-67
2023/07/16 05:38:05;;;;;;;5.88;2.35;;;18.60;99.90;;;;;;5016699;28;20364;-67
2023/07/16 05:40:31;;;;;;;3.38;2.53;;;18.60;99.90;;;;;;5012351;28;20221;-67
2023/07/16 05:42:58;;;;;;;6.78;2.95;;;18.70;99.90;;;;;;4992457;28;20230;-67
2023/07/16 05:45:25;;;;;;;7.63;3.58;;;18.70;99.90;;;;;;5017031;28;20225;-67
2023/07/16 05:47:53;;;;;;;9.40;3.42;;;18.50;99.90;;;;;;5008791;28;20221;-67
2023/07/16 05:50:20;;;;;;;5.97;2.53;;;18.70;99.90;;;;;;5007359;28;20225;-67
2023/07/16 05:52:48;;;;;;;5.10;2.53;;;18.50;99.90;;;;;;5026754;28;20793;-67
2023/07/16 05:55:15;;;;;;;9.07;3.28;;;;;;;;;;5012324;28;20236;-67
2023/07/16 05:57:42;;;;;;;6.82;2.60;;;18.70;99.90;;;;;;5017221;28;20596;-67
2023/07/16 06:00:10;;;;;;;12.80;3.08;;;18.80;99.90;;;;;;4989457;28;20623;-67
2023/07/16 06:02:37;;;;;;;7.30;2.70;;;;;;;;;;5001240;28;20275;-67
2023/07/16 06:05:06;;;;;;;8.23;3.42;;;18.80;99.90;;;;;;5016456;28;20226;-67
2023/07/16 06:07:33;;;;;;;4.43;3.00;;;18.80;99.90;;;;;;5006255;28;20221;-67
2023/07/16 06:10:00;;;;;;;11.43;2.75;;;18.90;99.90;;;;;;5018847;28;20224;-67
2023/07/16 06:12:27;;;;;;;5.57;2.83;;;18.80;99.90;;;;;;5002224;28;22730;-67
2023/07/16 06:14:54;;;;;;;8.55;3.03;;;18.90;99.90;;;;;;4993765;28;20269;-67
2023/07/16 06:17:21;;;;;;;5.25;2.92;;;18.90;99.90;;;;;;5008039;28;20228;-67
2023/07/16 06:19:49;;;;;;;5.75;2.45;;;19.00;99.90;;;;;;5019634;28;20221;-67
2023/07/16 06:22:18;;;;;;;5.53;2.88;;;;;;;;;;5006959;28;20217;-67
2023/07/16 06:24:45;;;;;;;4.97;2.70;;;19.00;99.90;;;;;;5013176;28;24579;-67
2023/07/16 06:27:12;;;;;;;6.88;2.88;;;;;;;;;;5009994;28;20237;-67
2023/07/16 06:29:39;;;;;;;6.13;2.38;;;19.20;99.90;;;;;;4989093;28;20225;-67
2023/07/16 06:32:07;;;;;;;5.05;2.38;;;19.20;99.90;;;;;;5021367;28;20228;-67
2023/07/16 06:34:35;;;;;;;6.25;2.80;;;19.20;99.90;;;;;;5007382;28;20225;-67
2023/07/16 06:37:02;;;;;;;6.65;2.72;;;19.30;99.90;;;;;;5015416;28;20233;-67
2023/07/16 06:39:31;;;;;;;5.88;2.05;;;19.30;99.90;;;;;;5019398;28;20717;-67
2023/07/16 06:41:58;;;;;;;5.88;2.30;;;19.30;99.90;;;;;;5009148;28;20221;-67
2023/07/16 06:44:26;;;;;;;4.35;2.50;;;19.30;99.90;;;;;;4993398;28;20221;-67
2023/07/16 06:46:53;;;;;;;7.00;2.10;;;19.40;99.90;;;;;;5019129;28;20328;-67
2023/07/16 06:49:20;;;;;;;2.00;1.77;;;19.40;99.90;;;;;;5010933;28;20229;-67
2023/07/16 06:51:48;;;;;;;4.78;2.40;;;19.40;99.90;;;;;;5020347;28;20221;-67
2023/07/16 06:54:14;;;;;;;6.57;2.40;;;19.40;99.90;;;;;;5010822;28;20221;-67
2023/07/16 06:56:42;;;;;;;3.63;2.20;;;19.50;99.90;;;;;;5016056;28;20233;-67
2023/07/16 06:59:09;;;;;;;4.35;2.50;;;19.40;99.90;;;;;;5010419;28;20225;-67
2023/07/16 07:01:36;;;;;;;7.65;2.67;;;19.50;99.90;;;;;;4977414;28;20896;-67
2023/07/16 07:04:03;;;;;;;4.00;2.45;;;19.60;99.90;;;;;;5005792;28;20229;-67
2023/07/16 07:06:29;;;;;;;6.63;2.72;;;19.60;99.90;;;;;;5019832;28;20716;-67
2023/07/16 07:08:56;;;;;;;5.78;2.53;;;19.60;99.90;;;;;;4998941;28;20222;-67
2023/07/16 07:11:23;;;;;;;4.75;2.35;;;19.60;99.90;;;;;;5024513;28;20344;-67
2023/07/16 07:13:53;;;;;;;4.90;2.70;;;20.40;99.90;;;;;;4980065;28;20257;-67
2023/07/16 07:16:20;;;;;;;7.35;2.45;;;19.60;99.90;;;;;;4979069;28;20225;-67
2023/07/16 07:18:47;;;;;;;7.93;2.60;;;19.60;99.90;;;;;;4994609;28;20228;-66
2023/07/16 07:21:14;;;;;;;3.40;2.40;;;19.70;99.90;;;;;;4998394;28;20225;-66
2023/07/16 07:23:40;;;;;;;4.45;2.22;;;19.70;99.90;;;;;;4994384;28;20222;-66
2023/07/16 07:26:08;;;;;;;5.72;2.60;;;19.70;99.90;;;;;;5014565;28;20845;-66
2023/07/16 07:28:35;;;;;;;5.03;2.45;;;19.70;99.90;;;;;;5006830;28;20226;-66
2023/07/16 07:31:03;;;;;;;3.70;2.60;;;19.80;99.90;;;;;;4982050;28;20229;-67
2023/07/16 07:33:32;;;;;;;5.75;2.20;;;19.80;99.90;;;;;;4963990;28;20236;-66
2023/07/16 07:35:58;;;;;;;3.70;2.35;;;19.90;99.90;;;;;;4986423;28;20232;-67
2023/07/16 07:38:25;;;;;;;6.18;2.40;;;19.90;99.90;;;;;;4962077;28;20611;-67
2023/07/16 07:40:52;;;;;;;3.42;2.47;;;18.20;99.90;;;;;;4997534;28;20225;-67
2023/07/16 07:43:19;;;;;;;4.57;2.50;;;19.90;99.90;;;;;;4976829;28;20324;-68
2023/07/16 07:45:46;;;;;;;5.35;2.30;;;19.90;99.90;;;;;;5002720;28;20224;-66
2023/07/16 07:48:14;;;;;;;3.67;2.65;;;19.90;99.90;;;;;;4974416;28;20232;-66
2023/07/16 07:50:41;;;;;;;5.50;3.03;;;20.00;99.90;;;;;;4995247;28;20704;-66
2023/07/16 07:53:07;;;;;;;5.45;2.60;;;20.10;99.90;;;;;;5006353;28;20229;-66
2023/07/16 07:55:35;;;;;;;3.25;2.20;;;20.10;99.90;;;;;;4977759;28;20283;-66
2023/07/16 07:58:02;;;;;;;5.53;2.25;;;20.10;99.90;;;;;;5004701;28;21098;-66
2023/07/16 08:00:28;;;;;;;5.95;2.40;;;20.20;99.90;;;;;;5010124;28;21169;-66
2023/07/16 08:02:55;;;;;;;5.25;2.20;;;20.10;99.90;;;;;;4947664;28;20251;-66
2023/07/16 08:05:24;;;;;;;5.65;3.13;;;20.10;99.90;;;;;;5000153;28;20241;-66
2023/07/16 08:07:52;;;;;;;4.88;2.35;;;20.20;99.90;;;;;;5001614;28;20237;-66
2023/07/16 08:10:18;;;;;;;4.13;2.38;;;19.40;99.90;;;;;;4991498;28;20304;-66
2023/07/16 08:12:45;;;;;;;2.58;2.28;;;20.20;99.90;;;;;;5006569;28;20206;-66
2023/07/16 08:15:14;;;;;;;3.25;2.13;;;20.40;99.90;;;;;;5011174;28;20232;-67
2023/07/16 08:17:41;;;;;;;4.18;2.63;;;20.30;99.90;;;;;;4982820;28;20364;-66
2023/07/16 08:20:09;;;;;;;5.50;2.90;;;20.40;99.90;;;;;;5003804;28;20252;-66
2023/07/16 08:22:38;;;;;;;6.55;2.50;;;20.40;99.90;;;;;;4998542;28;20313;-66
2023/07/16 08:25:05;;;;;;;7.80;3.10;;;20.40;99.90;;;;;;5012927;28;20201;-66
2023/07/16 08:27:33;;;;;;;4.95;2.35;;;20.50;99.90;;;;;;5015905;28;20308;-67
2023/07/16 08:29:59;;;;;;;5.63;2.90;;;20.90;99.90;;;;;;4992957;28;20229;-66
2023/07/16 08:32:26;;;;;;;8.23;2.72;;;20.50;99.90;;;;;;4992877;28;20221;-67
2023/07/16 08:34:53;;;;;;;5.90;2.55;;;20.50;99.90;;;;;;4987312;28;20223;-66
2023/07/16 08:37:20;;;;;;;5.28;2.83;;;20.50;99.90;;;;;;5001197;28;20228;-67
2023/07/16 08:39:52;;;;;;;6.53;2.45;;;20.50;99.90;;;;;;5013190;28;21854;-67
2023/07/16 08:42:20;;;;;;;4.53;2.85;;;20.50;99.90;;;;;;4994868;28;21269;-67
2023/07/16 08:44:47;;;;;;;6.35;2.70;;;20.60;99.90;;;;;;4972554;28;20235;-66
2023/07/16 08:47:14;;;;;;;5.32;3.10;;;20.60;99.90;;;;;;4988942;28;20238;-66
2023/07/16 08:49:42;;;;;;;6.07;2.53;;;20.60;99.90;;;;;;4956207;28;20775;-66
2023/07/16 08:52:10;;;;;;;3.97;2.28;;;20.70;99.90;;;;;;5008364;28;20237;-66
2023/07/16 08:54:37;;;;;;;4.13;2.25;;;20.60;99.90;;;;;;4998656;28;20706;-66
2023/07/16 08:57:06;;;;;;;10.18;3.10;;;20.60;99.90;;;;;;4995739;28;20690;-66
2023/07/16 08:59:33;;;;;;;4.43;2.70;;;20.70;99.90;;;;;;5007533;28;20301;-66
2023/07/16 09:02:00;;;;;;;4.88;2.80;;;20.60;99.90;;;;;;4997089;28;20216;-67
2023/07/16 09:04:29;;;;;;;9.40;2.50;;;21.40;99.90;;;;;;4980231;28;20840;-67
2023/07/16 09:06:56;;;;;;;4.63;2.15;;;20.70;99.90;;;;;;5023059;28;20274;-66
2023/07/16 09:09:23;;;;;;;4.78;2.70;;;20.70;99.90;;;;;;4991299;28;20218;-66
2023/07/16 09:11:51;;;;;;;5.60;3.22;;;20.60;99.90;;;;;;5006091;28;20206;-66
2023/07/16 09:14:20;;;;;;;5.88;2.42;;;20.60;99.90;;;;;;4995878;28;20240;-66
2023/07/16 09:16:50;;;;;;;5.38;2.97;;;20.70;99.90;;;;;;4991114;28;20205;-66
2023/07/16 09:19:18;;;;;;;5.38;2.70;;;20.70;99.90;;;;;;4987107;28;20205;-66
2023/07/16 09:21:48;;;;;;;5.43;2.42;;;20.80;99.90;;;;;;4966422;28;21104;-66
2023/07/16 09:24:15;;;;;;;5.72;2.85;;;20.80;99.90;;;;;;4972007;28;20248;-66
2023/07/16 09:26:50;;;;;;;4.88;2.80;;;20.70;99.90;;;;;;4987711;28;20220;-66
2023/07/16 09:29:19;;;;;;;6.22;3.00;;;20.80;99.90;;;;;;4996430;28;20315;-66
2023/07/16 09:32:02;;;;;;;4.68;2.75;;;20.80;99.90;;;;;;4997911;28;20225;-65
2023/07/16 09:34:30;;;;;;;3.78;2.72;;;20.90;99.90;;;;;;4990678;28;20224;-66
2023/07/16 09:36:57;;;;;;;7.93;2.70;;;20.90;99.90;;;;;;4977075;28;20594;-66
2023/07/16 09:39:26;;;;;;;3.72;2.63;;;21.00;99.90;;;;;;4994349;28;20761;-66
2023/07/16 09:41:56;;;;;;;4.35;2.50;;;21.10;99.90;;;;;;4984107;28;20209;-66
2023/07/16 09:44:24;;;;;;;5.85;3.00;;;21.20;99.90;;;;;;4984804;28;20225;-66
2023/07/16 09:46:51;;;;;;;5.38;2.58;;;21.20;99.90;;;;;;4987171;28;20310;-66
2023/07/16 09:49:18;;;;;;;8.18;2.85;;;21.30;99.90;;;;;;4993132;28;21128;-66
2023/07/16 09:51:46;;;;;;;7.88;3.60;;;21.20;99.90;;;;;;4976783;28;20213;-66
2023/07/16 09:54:15;;;;;;;3.00;2.30;;;21.20;99.90;;;;;;5008224;28;20198;-65
2023/07/16 09:56:45;;;;;;;6.72;2.75;;;20.30;99.90;;;;;;4994013;28;21051;-65
2023/07/16 09:59:15;;;;;;;4.00;3.20;;;21.10;99.90;;;;;;4987020;28;20218;-65
2023/07/16 10:01:43;;;;;;;4.07;2.90;;;21.20;99.90;;;;;;4990215;28;21843;-65
2023/07/16 10:04:14;;;;;;;6.97;2.65;;;21.20;99.90;;;;;;4987519;28;20212;-65
2023/07/16 10:06:55;;;;;;;6.82;2.83;;;21.40;99.90;;;;;;4969017;28;20240;-65
2023/07/16 10:09:39;;;;;;;4.65;2.70;;;21.50;99.90;;;;;;4996445;28;20230;-65
2023/07/16 10:12:16;;;;;;;6.78;2.58;;;21.90;99.90;;;;;;4991288;28;20225;-65
2023/07/16 10:14:44;;;;;;;3.22;2.33;;;21.60;99.90;;;;;;4989271;28;20907;-65
2023/07/16 10:17:16;;;;;;;5.03;2.78;;;21.70;99.90;;;;;;5002066;28;20213;-66
2023/07/16 10:19:50;;;;;;;4.88;2.50;;;21.60;99.90;;;;;;4983849;28;21507;-66
2023/07/16 10:22:18;;;;;;;6.43;2.45;;;21.50;99.90;;;;;;4978144;28;20225;-66
2023/07/16 10:24:45;;;;;;;4.70;2.80;;;21.50;99.90;;;;;;4993370;28;20235;-66
2023/07/16 10:27:14;;;;;;;7.43;2.60;;;21.40;99.90;;;;;;4994143;28;20221;-66
2023/07/16 10:29:41;;;;;;;2.92;2.20;;;21.40;99.90;;;;;;4994866;28;20336;-65
2023/07/16 10:32:08;;;;;;;5.25;2.40;;;21.30;99.90;;;;;;4989968;28;20220;-65
2023/07/16 10:34:37;;;;;;;6.30;2.75;;;21.40;99.90;;;;;;5017880;28;20276;-65
2023/07/16 10:37:06;;;;;;;3.38;2.17;;;21.40;99.90;;;;;;5002452;28;20212;-66
2023/07/16 10:39:33;;;;;;;6.30;3.15;;;21.20;99.90;;;;;;4965091;28;20233;-65
2023/07/16 10:42:00;;;;;;;8.90;2.60;;;21.30;99.90;;;;;;5004248;28;20222;-66
2023/07/16 10:44:28;;;;;;;9.43;2.45;;;21.20;99.90;;;;;;4993657;28;25146;-65
2023/07/16 10:46:55;;;;;;;7.70;2.50;;;21.30;99.90;;;;;;4988208;28;20974;-66
2023/07/16 10:49:28;;;;;;;7.40;2.22;;;21.20;99.90;;;;;;4988324;28;20210;-66
2023/07/16 10:51:58;;;;;;;5.80;2.50;;;21.20;99.90;;;;;;5000192;28;20225;-66
2023/07/16 10:54:25;;;;;;;3.92;2.45;;;21.40;99.90;;;;;;4986658;28;20206;-66
2023/07/16 10:56:52;;;;;;;6.57;2.92;;;21.50;99.90;;;;;;5007855;28;20667;-66
2023/07/16 10:59:19;;;;;;;5.65;2.42;;;21.50;99.90;;;;;;4997880;28;20869;-66
2023/07/16 11:01:46;;;;;;;5.10;2.45;;;21.50;99.90;;;;;;4993993;28;20213;-66
2023/07/16 11:04:13;;;;;;;3.97;2.38;;;21.90;99.90;;;;;;4979418;28;21886;-66
2023/07/16 11:06:40;;;;;;;5.15;2.50;;;22.10;99.90;;;;;;4973442;28;20321;-65
2023/07/16 11:09:09;;;;;;;4.78;2.42;;;22.10;99.90;;;;;;4984630;28;20682;-65
2023/07/16 11:11:36;;;;;;;6.30;2.40;;;21.90;99.90;;;;;;5001226;28;20608;-67
2023/07/16 11:14:05;;;;;;;7.30;2.50;;;21.90;99.90;;;;;;5001663;28;20205;-65
2023/07/16 11:16:35;;;;;;;6.00;2.78;;;21.50;99.90;;;;;;4986648;28;20233;-68
2023/07/16 11:19:03;;;;;;;6.80;2.33;;;21.60;99.90;;;;;;4994635;28;20310;-66
2023/07/16 11:21:30;;;;;;;5.88;2.80;;;;;;;;;;5006326;28;20233;-67
2023/07/16 11:24:07;;;;;;;4.25;2.50;;;21.60;99.90;;;;;;4953920;28;20218;-66
2023/07/16 11:26:36;;;;;;;17.42;3.20;;;21.50;99.90;;;;;;4995900;28;20232;-66
2023/07/16 11:29:13;;;;;;;4.20;2.25;;;21.60;99.90;;;;;;5006943;28;20320;-66
2023/07/16 11:31:41;;;;;;;4.65;2.60;;;21.60;99.90;;;;;;4988169;28;20201;-66
2023/07/16 11:34:08;;;;;;;3.28;2.45;;;21.60;99.90;;;;;;4984610;28;20785;-66
2023/07/16 11:36:35;;;;;;;4.63;2.55;;;21.60;99.90;;;;;;4992530;28;20344;-66
2023/07/16 11:39:04;;;;;;;10.57;2.95;;;18.70;99.90;;;;;;4990707;28;20580;-66
2023/07/16 11:41:32;;;;;;;6.85;3.00;;;21.90;99.90;;;;;;4971587;28;20358;-66
2023/07/16 11:44:02;;;;;;;5.50;2.63;;;22.90;99.90;;;;;;5007450;28;20227;-66
2023/07/16 11:46:33;;;;;;;3.53;2.67;;;22.10;99.90;;;;;;4975832;28;20209;-66
2023/07/16 11:48:59;;;;;;;4.05;2.85;;;22.00;99.90;;;;;;4988151;28;20228;-66
2023/07/16 11:51:26;;;;;;;5.05;2.55;;;22.00;99.90;;;;;;4979944;28;20492;-66
2023/07/16 11:53:55;;;;;;;3.15;2.08;;;21.90;99.90;;;;;;4997381;28;20802;-66
2023/07/16 11:56:21;;;;;;;6.68;2.47;;;21.80;99.90;;;;;;4974285;28;20225;-66
2023/07/16 11:58:49;;;;;;;4.60;2.63;;;21.70;99.90;;;;;;4997152;28;20253;-66
2023/07/16 12:01:18;;;;;;;6.85;2.95;;;21.80;99.90;;;;;;4990911;28;20226;-66
2023/07/16 12:03:44;;;;;;;4.25;2.67;;;21.90;99.90;;;;;;4964654;28;20220;-66
2023/07/16 12:06:11;;;;;;;3.30;2.30;;;21.80;99.90;;;;;;4991476;28;20236;-66
2023/07/16 12:08:38;;;;;;;5.35;2.50;;;21.90;99.90;;;;;;4993981;28;20236;-66
2023/07/16 12:11:05;;;;;;;4.53;2.60;;;21.80;99.90;;;;;;4957907;28;20233;-66
2023/07/16 12:13:31;;;;;;;3.35;2.28;;;21.70;99.90;;;;;;5000549;28;20228;-65
2023/07/16 12:15:58;;;;;;;5.25;2.42;;;21.70;99.90;;;;;;5002158;28;20805;-65
2023/07/16 12:18:27;;;;;;;6.05;2.15;;;21.80;99.90;;;;;;4972981;28;20718;-66
2023/07/16 12:20:53;;;;;;;5.30;2.40;;;21.90;99.90;;;;;;4998440;28;20507;-66
2023/07/16 12:23:20;;;;;;;5.20;2.33;;;21.90;99.90;;;;;;5002979;28;20206;-66
2023/07/16 12:25:48;;;;;;;3.92;2.33;;;21.90;99.90;;;;;;4999142;28;20202;-66
2023/07/16 12:28:15;;;;;;;4.43;2.65;;;21.90;99.90;;;;;;4981355;28;20826;-65
2023/07/16 12:30:41;;;;;;;3.65;2.30;;;21.70;99.90;;;;;;5007571;28;20564;-66
2023/07/16 12:33:08;;;;;;;3.50;2.60;;;21.60;99.90;;;;;;4994322;28;20237;-66
2023/07/16 12:35:36;;;;;;;8.43;2.70;;;21.30;99.90;;;;;;4997649;28;20228;-65
2023/07/16 12:38:03;;;;;;;3.80;2.60;;;21.40;99.90;;;;;;4990754;28;20702;-65
2023/07/16 12:40:31;;;;;;;5.78;2.67;;;21.20;99.90;;;;;;4996531;28;21435;-65
2023/07/16 12:42:58;;;;;;;5.78;2.90;;;21.40;99.90;;;;;;4983411;28;21861;-65
2023/07/16 12:45:24;;;;;;;4.95;2.67;;;21.40;99.90;;;;;;4993375;28;20198;-66
2023/07/16 12:47:51;;;;;;;3.78;2.67;;;21.30;99.90;;;;;;4993558;28;20832;-66
2023/07/16 12:50:18;;;;;;;3.35;2.38;;;21.20;99.90;;;;;;4991442;28;20772;-65